Time;durP1;ratioP1;P1;durP2;ratioP2;P2;SDS_P1;SDS_P2;PMS_P1;PMS_P2;Temp;Humidity;BMP_temperature;BMP_pressure;BME280_temperature;BME280_humidity;BME280_pressure;Samples;Min_cycle;Max_cycle;Signal;HPM_P1;HPM_P2
2022/03/13 00:00:34;;;;;;;129.43;117.43;;;11.10;52.80;;;;;;4998764;28;20061;-77
2022/03/13 00:03:04;;;;;;;125.93;113.93;;;11.00;52.80;;;;;;4995303;28;20513;-77
2022/03/13 00:05:33;;;;;;;126.22;114.25;;;11.00;52.90;;;;;;4998584;28;20054;-77
2022/03/13 00:08:02;;;;;;;126.50;114.55;;;11.00;53.00;;;;;;4998669;28;20097;-77
2022/03/13 00:10:31;;;;;;;127.63;115.70;;;10.90;53.10;;;;;;4998845;28;20097;-77
2022/03/13 00:12:59;;;;;;;127.72;115.50;;;10.90;53.20;;;;;;4998871;28;20050;-77
2022/03/13 00:15:34;;;;;;;128.50;116.40;;;10.90;53.30;;;;;;4998282;28;20054;-77
2022/03/13 00:18:03;;;;;;;125.97;113.85;;;10.90;53.40;;;;;;4998314;28;20133;-78
2022/03/13 00:20:30;;;;;;;128.93;116.82;;;10.90;53.30;;;;;;4998619;28;20172;-78
2022/03/13 00:22:58;;;;;;;125.82;113.95;;;10.90;53.40;;;;;;4998737;28;20837;-77
2022/03/13 00:25:25;;;;;;;127.38;115.30;;;10.90;53.40;;;;;;4982113;28;20056;-77
2022/03/13 00:27:52;;;;;;;128.05;115.93;;;10.90;53.40;;;;;;4998638;28;20516;-77
2022/03/13 00:30:19;;;;;;;128.30;115.80;;;10.90;53.40;;;;;;5015952;28;20156;-77
2022/03/13 00:32:46;;;;;;;125.55;113.70;;;10.80;53.40;;;;;;4998516;28;20126;-77
2022/03/13 00:35:15;;;;;;;128.38;116.18;;;10.80;53.40;;;;;;4998298;28;20141;-77
2022/03/13 00:37:42;;;;;;;127.03;115.03;;;10.80;53.40;;;;;;5015122;28;20059;-77
2022/03/13 00:40:12;;;;;;;127.28;115.25;;;10.80;53.50;;;;;;4998395;28;20054;-77
2022/03/13 00:43:30;;;;;;;127.40;115.20;;;10.80;53.60;;;;;;4998859;28;20051;-77
2022/03/13 00:45:57;;;;;;;128.52;116.13;;;10.70;53.50;;;;;;4981903;28;20105;-77
2022/03/13 00:48:27;;;;;;;128.60;116.18;;;10.70;53.70;;;;;;5015754;28;20050;-78
2022/03/13 00:50:56;;;;;;;127.63;115.53;;;10.70;53.80;;;;;;5014738;28;20050;-77
2022/03/13 00:53:23;;;;;;;126.32;114.10;;;10.70;53.90;;;;;;4998099;28;20082;-78
2022/03/13 00:55:51;;;;;;;128.38;116.30;;;10.70;53.90;;;;;;4998391;28;20105;-77
2022/03/13 00:58:18;;;;;;;128.05;115.95;;;10.70;54.00;;;;;;4997923;28;20050;-77
2022/03/13 01:00:45;;;;;;;126.13;114.18;;;10.60;54.00;;;;;;4998334;28;20133;-77
2022/03/13 01:03:30;;;;;;;127.53;115.35;;;10.60;54.00;;;;;;4998288;28;20416;-78
2022/03/13 01:05:59;;;;;;;;;;;10.50;54.00;;;;;;4997961;28;20805;-77
2022/03/13 01:08:27;;;;;;;124.45;112.45;;;10.40;54.20;;;;;;5015839;28;19925;-77
2022/03/13 01:10:53;;;;;;;126.57;114.38;;;10.30;54.10;;;;;;5015743;28;20595;-77
2022/03/13 01:13:21;;;;;;;125.60;113.60;;;10.20;54.40;;;;;;5015531;28;20057;-77
2022/03/13 01:15:49;;;;;;;126.90;114.72;;;10.10;54.60;;;;;;4997584;28;20551;-77
2022/03/13 01:18:17;;;;;;;126.05;113.95;;;10.10;54.60;;;;;;4997452;28;20050;-77
2022/03/13 01:20:47;;;;;;;127.88;115.47;;;10.10;54.80;;;;;;4997529;28;20065;-77
2022/03/13 01:23:16;;;;;;;126.45;114.47;;;10.10;54.90;;;;;;4997984;28;20517;-77
2022/03/13 01:25:44;;;;;;;126.28;113.85;;;10.10;54.90;;;;;;4997645;28;20067;-77
2022/03/13 01:28:11;;;;;;;126.70;114.47;;;10.10;55.00;;;;;;4997528;28;20052;-77
2022/03/13 01:30:38;;;;;;;127.60;114.88;;;10.10;55.10;;;;;;4997496;28;20058;-77
2022/03/13 01:33:05;;;;;;;125.18;112.88;;;10.10;55.20;;;;;;4997775;28;20062;-77
2022/03/13 01:35:32;;;;;;;126.60;114.57;;;10.00;55.30;;;;;;4997439;28;20816;-77
2022/03/13 01:38:03;;;;;;;126.60;114.53;;;9.90;55.40;;;;;;5016773;28;20113;-77
2022/03/13 01:40:33;;;;;;;129.15;116.78;;;9.90;55.70;;;;;;4996369;28;20141;-77
2022/03/13 01:46:43;;;;;;;123.40;111.63;;;9.80;56.00;;;;;;4981177;28;20086;-77
2022/03/13 01:49:11;;;;;;;122.70;111.13;;;9.70;56.00;;;;;;5013704;28;20061;-77
2022/03/13 01:51:39;;;;;;;122.63;111.13;;;9.70;56.20;;;;;;4981412;28;20145;-77
2022/03/13 01:54:12;;;;;;;123.70;111.95;;;9.70;56.30;;;;;;4996897;28;20086;-77
2022/03/13 01:56:42;;;;;;;123.72;112.20;;;9.60;56.40;;;;;;4997177;28;20085;-76
2022/03/13 01:59:11;;;;;;;124.50;112.85;;;9.70;56.50;;;;;;5014699;28;20050;-77
2022/03/13 02:01:39;;;;;;;124.22;112.43;;;9.60;56.50;;;;;;4999975;28;20499;-78
2022/03/13 02:04:06;;;;;;;124.88;112.90;;;9.60;56.60;;;;;;4995961;28;20050;-76
2022/03/13 02:06:36;;;;;;;124.68;112.72;;;9.60;56.60;;;;;;5013331;28;20145;-77
2022/03/13 02:09:06;;;;;;;123.90;111.82;;;9.70;56.80;;;;;;4996589;28;20104;-76
2022/03/13 02:11:36;;;;;;;123.32;111.60;;;9.70;56.90;;;;;;4996965;28;20050;-77
2022/03/13 02:14:05;;;;;;;124.07;112.05;;;9.70;57.00;;;;;;5014885;28;20057;-77
2022/03/13 02:16:32;;;;;;;122.70;110.88;;;9.70;57.00;;;;;;4996623;28;20050;-77
2022/03/13 02:18:59;;;;;;;124.43;112.25;;;9.60;56.90;;;;;;4995774;28;20051;-77
2022/03/13 02:21:28;;;;;;;124.05;112.05;;;9.70;57.20;;;;;;4996920;28;20058;-77
2022/03/13 02:24:01;;;;;;;121.88;110.28;;;9.70;57.20;;;;;;4996740;28;20173;-77
2022/03/13 02:26:28;;;;;;;123.93;112.22;;;9.70;57.30;;;;;;4996561;28;20057;-77
2022/03/13 02:28:57;;;;;;;123.63;111.82;;;9.70;57.50;;;;;;4996542;28;20054;-77
2022/03/13 02:31:28;;;;;;;122.57;111.00;;;9.60;57.40;;;;;;4996302;28;20060;-76
2022/03/13 02:33:56;;;;;;;122.75;111.15;;;9.60;57.50;;;;;;4996843;28;20063;-77
2022/03/13 02:36:33;;;;;;;123.90;112.13;;;9.70;57.70;;;;;;4996386;28;20054;-77
2022/03/13 02:39:01;;;;;;;;;;;9.60;57.70;;;;;;4996924;28;20051;-77
2022/03/13 02:41:28;;;;;;;123.07;110.97;;;9.60;57.70;;;;;;5014820;28;19932;-77
2022/03/13 02:43:56;;;;;;;123.47;111.63;;;9.60;57.80;;;;;;4996205;28;20137;-77
2022/03/13 02:46:24;;;;;;;125.10;113.32;;;9.60;57.90;;;;;;4996500;28;20125;-77
2022/03/13 02:48:52;;;;;;;123.88;111.88;;;9.60;58.20;;;;;;4996259;28;20054;-77
2022/03/13 02:51:19;;;;;;;126.28;114.47;;;9.60;58.30;;;;;;4996415;28;20050;-77
2022/03/13 02:53:46;;;;;;;125.93;114.00;;;9.60;58.30;;;;;;4996309;28;20512;-77
2022/03/13 02:56:14;;;;;;;124.55;112.65;;;9.70;58.40;;;;;;4996305;28;20065;-77
2022/03/13 02:58:41;;;;;;;124.35;112.55;;;9.70;58.40;;;;;;4980121;28;20076;-77
2022/03/13 03:01:09;;;;;;;124.47;112.57;;;9.70;58.30;;;;;;4996071;28;20054;-77
2022/03/13 03:03:36;;;;;;;124.68;112.88;;;9.80;58.30;;;;;;5012607;28;20050;-77
2022/03/13 03:06:04;;;;;;;128.10;116.18;;;9.80;58.50;;;;;;4996211;28;20049;-77
2022/03/13 03:08:31;;;;;;;124.75;112.95;;;9.80;58.00;;;;;;4995979;28;20060;-77
2022/03/13 03:10:59;;;;;;;123.50;111.97;;;9.90;58.00;;;;;;5012649;28;20046;-77
2022/03/13 03:13:27;;;;;;;124.55;112.55;;;9.90;57.90;;;;;;4996019;28;20054;-77
2022/03/13 03:15:54;;;;;;;125.10;113.50;;;9.90;57.80;;;;;;4995906;28;20050;-77
2022/03/13 03:18:23;;;;;;;125.53;113.63;;;9.90;57.80;;;;;;5013784;28;20571;-77
2022/03/13 03:20:50;;;;;;;123.95;112.25;;;10.00;57.80;;;;;;4995718;28;20547;-77
2022/03/13 03:23:17;;;;;;;125.53;113.63;;;9.90;57.90;;;;;;4979832;28;20129;-77
2022/03/13 03:25:44;;;;;;;126.68;114.47;;;9.90;57.90;;;;;;4995834;28;20055;-77
2022/03/13 03:28:17;;;;;;;126.22;114.32;;;9.80;57.80;;;;;;4995795;28;20121;-77
2022/03/13 03:30:46;;;;;;;125.40;113.60;;;9.80;57.90;;;;;;4995988;28;20086;-77
2022/03/13 03:33:13;;;;;;;127.43;115.40;;;9.80;57.80;;;;;;4995575;28;20043;-77
2022/03/13 03:35:40;;;;;;;126.85;114.63;;;9.70;57.90;;;;;;4995753;28;20054;-77
2022/03/13 03:38:07;;;;;;;126.57;114.55;;;9.70;57.90;;;;;;5013493;28;20057;-77
2022/03/13 03:40:35;;;;;;;125.95;114.03;;;9.70;58.00;;;;;;5011951;28;20059;-77
2022/03/13 03:43:04;;;;;;;127.57;115.38;;;9.70;57.90;;;;;;4995552;28;20053;-77
2022/03/13 03:45:32;;;;;;;125.32;113.32;;;9.70;57.80;;;;;;5013426;28;20145;-77
2022/03/13 03:48:01;;;;;;;126.85;114.85;;;9.70;57.80;;;;;;5013425;28;20060;-77
2022/03/13 03:50:28;;;;;;;126.38;114.50;;;9.60;57.70;;;;;;4995744;28;20054;-77
2022/03/13 03:52:56;;;;;;;127.35;115.20;;;9.60;58.10;;;;;;4995724;28;20059;-76
2022/03/13 03:55:23;;;;;;;127.00;114.82;;;9.60;57.70;;;;;;4995470;28;20042;-77
2022/03/13 03:57:50;;;;;;;126.30;114.10;;;9.60;57.70;;;;;;4995206;28;20054;-77
2022/03/13 04:00:18;;;;;;;126.60;114.72;;;9.60;57.70;;;;;;5012291;28;20054;-77
2022/03/13 04:02:45;;;;;;;127.07;115.20;;;9.60;57.70;;;;;;4995388;28;20046;-77
2022/03/13 04:05:14;;;;;;;128.07;115.88;;;9.50;57.70;;;;;;4995511;28;20498;-77
2022/03/13 04:07:41;;;;;;;127.50;115.45;;;9.50;57.80;;;;;;4995285;28;20058;-77
2022/03/13 04:10:10;;;;;;;126.88;114.78;;;9.50;57.80;;;;;;4996538;28;20140;-77
2022/03/13 04:12:39;;;;;;;132.18;119.60;;;9.60;57.70;;;;;;5057712;23;20061;-77
2022/03/13 04:15:07;;;;;;;128.48;116.15;;;9.60;57.60;;;;;;5021429;28;20069;-77
2022/03/13 04:17:35;;;;;;;128.48;116.50;;;9.60;57.90;;;;;;5037810;28;20059;-77
2022/03/13 04:20:03;;;;;;;128.95;116.78;;;9.60;57.50;;;;;;5037610;28;20112;-77
2022/03/13 04:22:31;;;;;;;127.20;115.07;;;9.60;57.50;;;;;;5021123;28;20613;-77
2022/03/13 04:24:58;;;;;;;129.23;117.13;;;9.60;57.50;;;;;;5020499;28;20506;-77
2022/03/13 04:27:27;;;;;;;127.25;115.32;;;9.50;57.40;;;;;;5037602;28;20053;-77
2022/03/13 04:29:54;;;;;;;127.35;115.32;;;9.50;57.40;;;;;;5038054;28;20049;-77
2022/03/13 04:32:23;;;;;;;129.23;116.72;;;9.50;57.40;;;;;;5040798;28;20054;-77
2022/03/13 04:34:50;;;;;;;126.25;114.30;;;9.50;57.40;;;;;;5037531;28;20068;-76
2022/03/13 04:37:18;;;;;;;129.15;116.88;;;9.40;57.40;;;;;;5055758;28;20053;-77
2022/03/13 04:39:50;;;;;;;128.50;116.15;;;9.40;57.60;;;;;;5038008;28;20053;-77
2022/03/13 04:42:18;;;;;;;127.80;115.70;;;9.30;57.80;;;;;;5037830;28;20123;-77
2022/03/13 04:44:45;;;;;;;128.63;115.82;;;9.10;57.80;;;;;;5037628;28;20140;-77
2022/03/13 04:47:12;;;;;;;129.80;117.47;;;9.00;57.90;;;;;;5037582;28;20079;-77
2022/03/13 04:49:39;;;;;;;128.57;116.40;;;9.00;58.10;;;;;;5037808;28;20045;-77
2022/03/13 04:52:07;;;;;;;127.07;114.88;;;8.90;58.10;;;;;;5037614;28;20053;-77
2022/03/13 04:54:34;;;;;;;126.28;114.32;;;8.90;58.40;;;;;;5055545;28;20056;-77
2022/03/13 04:57:03;;;;;;;128.18;115.93;;;8.80;58.40;;;;;;5037174;28;20068;-77
2022/03/13 04:59:30;;;;;;;126.60;114.55;;;8.80;58.40;;;;;;5037554;28;20140;-77
2022/03/13 05:01:58;;;;;;;124.53;112.63;;;8.70;58.60;;;;;;5037621;28;20046;-77
2022/03/13 05:04:25;;;;;;;128.88;116.25;;;8.70;58.80;;;;;;5037457;28;20080;-77
2022/03/13 05:06:51;;;;;;;126.72;114.57;;;8.60;58.80;;;;;;5037367;28;20064;-77
2022/03/13 05:09:18;;;;;;;129.60;117.00;;;8.70;58.90;;;;;;5037135;28;20537;-76
2022/03/13 05:11:45;;;;;;;126.50;114.30;;;8.70;58.80;;;;;;5036862;28;20052;-77
2022/03/13 05:14:13;;;;;;;127.10;114.43;;;8.70;58.70;;;;;;5020766;28;20049;-77
2022/03/13 05:16:40;;;;;;;127.43;115.30;;;8.80;58.70;;;;;;5037321;28;20046;-77
2022/03/13 05:19:07;;;;;;;128.90;116.55;;;8.80;58.70;;;;;;5036033;28;20064;-77
2022/03/13 05:21:36;;;;;;;128.35;115.95;;;8.80;58.50;;;;;;5036847;28;20077;-77
2022/03/13 05:24:04;;;;;;;127.05;115.07;;;8.80;58.50;;;;;;5054681;28;20495;-77
2022/03/13 05:26:32;;;;;;;127.80;115.30;;;8.90;58.50;;;;;;5036958;28;20053;-77
2022/03/13 05:28:59;;;;;;;128.25;115.60;;;8.80;58.40;;;;;;5054663;28;20053;-77
2022/03/13 05:31:27;;;;;;;127.78;115.63;;;8.80;58.30;;;;;;5036891;28;20546;-77
2022/03/13 05:33:54;;;;;;;127.68;115.28;;;8.80;58.40;;;;;;5036414;28;20422;-77
2022/03/13 05:36:21;;;;;;;128.10;115.78;;;8.80;58.40;;;;;;5020428;28;20056;-77
2022/03/13 05:38:48;;;;;;;128.85;116.47;;;8.80;58.30;;;;;;5036492;28;20064;-77
2022/03/13 05:41:22;;;;;;;128.95;116.47;;;8.80;58.30;;;;;;5036485;28;20552;-77
2022/03/13 05:43:49;;;;;;;127.53;115.43;;;8.90;58.40;;;;;;5036691;28;20050;-77
2022/03/13 05:46:16;;;;;;;127.60;115.53;;;8.90;58.20;;;;;;5054293;28;20058;-77
2022/03/13 05:48:44;;;;;;;124.68;112.63;;;8.80;58.10;;;;;;5054221;28;21076;-77
2022/03/13 05:51:12;;;;;;;127.97;115.57;;;8.80;58.10;;;;;;5020402;28;20048;-77
2022/03/13 05:53:39;;;;;;;128.05;115.68;;;8.80;58.00;;;;;;5054636;28;20537;-77
2022/03/13 05:56:06;;;;;;;128.00;115.75;;;8.80;58.00;;;;;;5036952;28;20535;-76
2022/03/13 05:58:33;;;;;;;125.60;113.40;;;8.80;57.80;;;;;;5035951;28;20063;-76
2022/03/13 06:01:04;;;;;;;127.10;115.00;;;8.80;57.90;;;;;;5054185;28;20076;-77
2022/03/13 06:03:31;;;;;;;127.50;115.15;;;8.80;57.80;;;;;;5036351;28;20752;-77
2022/03/13 06:06:02;;;;;;;126.68;114.65;;;8.70;57.70;;;;;;5036329;28;20049;-76
2022/03/13 06:08:29;;;;;;;127.72;115.63;;;8.80;57.90;;;;;;5036404;28;20053;-77
2022/03/13 06:10:57;;;;;;;126.13;114.22;;;8.80;57.80;;;;;;5035428;28;20050;-77
2022/03/13 06:13:24;;;;;;;127.35;115.15;;;8.70;57.60;;;;;;5019394;28;20056;-77
2022/03/13 06:15:51;;;;;;;128.07;115.70;;;8.70;57.70;;;;;;5036007;28;20574;-76
2022/03/13 06:18:18;;;;;;;127.38;115.10;;;8.70;57.80;;;;;;5035972;28;20153;-77
2022/03/13 06:20:45;;;;;;;126.53;114.15;;;8.70;57.80;;;;;;5036368;28;20092;-77
2022/03/13 06:23:14;;;;;;;127.07;114.82;;;8.70;57.80;;;;;;5035816;28;20507;-77
2022/03/13 06:25:43;;;;;;;127.65;114.90;;;8.60;57.70;;;;;;5036264;28;20055;-76
2022/03/13 06:28:10;;;;;;;126.80;114.30;;;8.70;57.80;;;;;;5054108;28;20494;-76
2022/03/13 06:30:37;;;;;;;125.00;112.97;;;8.60;57.60;;;;;;5036016;28;20061;-77
2022/03/13 06:33:05;;;;;;;126.50;114.43;;;8.70;57.60;;;;;;5036354;28;20058;-77
2022/03/13 06:35:33;;;;;;;126.53;114.38;;;8.70;57.70;;;;;;5035185;28;20056;-77
2022/03/13 06:38:00;;;;;;;123.18;111.40;;;8.70;57.70;;;;;;5037211;28;20060;-77
2022/03/13 06:40:28;;;;;;;125.95;113.85;;;8.70;57.60;;;;;;5035755;28;20517;-76
2022/03/13 06:42:59;;;;;;;126.22;114.03;;;8.70;57.50;;;;;;5019275;28;20045;-76
2022/03/13 06:45:26;;;;;;;127.80;115.45;;;8.70;57.40;;;;;;5034926;28;20050;-77
2022/03/13 06:47:54;;;;;;;123.82;111.75;;;8.60;57.20;;;;;;4989055;28;20060;-78
2022/03/13 06:50:23;;;;;;;124.35;112.53;;;8.70;57.20;;;;;;5014785;28;20072;-78
2022/03/13 06:52:52;;;;;;;127.22;115.00;;;8.60;57.20;;;;;;5001435;28;20057;-77
2022/03/13 06:55:22;;;;;;;124.63;112.43;;;8.60;57.20;;;;;;5035662;28;20049;-78
2022/03/13 06:57:51;;;;;;;123.28;111.20;;;8.60;57.20;;;;;;5035604;28;20057;-77
2022/03/13 07:00:19;;;;;;;124.00;111.53;;;8.50;57.10;;;;;;5035506;28;20129;-77
2022/03/13 07:02:46;;;;;;;121.93;110.07;;;8.50;57.10;;;;;;5029483;28;20092;-77
2022/03/13 07:05:15;;;;;;;122.28;110.47;;;8.40;57.10;;;;;;5016008;28;20053;-77
2022/03/13 07:07:42;;;;;;;124.57;112.40;;;8.40;57.40;;;;;;5015736;28;20062;-77
2022/03/13 07:10:12;;;;;;;123.22;111.32;;;8.40;57.50;;;;;;5033768;28;20050;-77
2022/03/13 07:12:40;;;;;;;122.90;110.88;;;8.40;57.70;;;;;;5015197;28;20050;-77
2022/03/13 07:15:13;;;;;;;122.82;110.70;;;8.50;57.90;;;;;;5015875;28;20523;-77
2022/03/13 07:17:42;;;;;;;123.65;111.63;;;8.50;58.00;;;;;;5015620;28;20042;-77
2022/03/13 07:20:09;;;;;;;121.32;109.40;;;8.60;58.10;;;;;;5015509;28;21008;-77
2022/03/13 07:22:36;;;;;;;123.28;111.18;;;8.60;58.10;;;;;;5023316;28;20060;-78
2022/03/13 07:25:08;;;;;;;121.90;110.35;;;8.70;58.10;;;;;;5035222;28;20057;-78
2022/03/13 07:27:36;;;;;;;121.13;109.53;;;8.70;58.10;;;;;;5029924;28;20064;-77
2022/03/13 07:30:04;;;;;;;121.50;109.57;;;8.70;57.90;;;;;;5035458;28;20041;-77
2022/03/13 07:32:33;;;;;;;122.82;110.63;;;8.70;57.90;;;;;;5035318;28;20055;-79
2022/03/13 07:35:00;;;;;;;121.25;109.70;;;8.70;58.00;;;;;;5035322;28;20092;-77
2022/03/13 07:37:27;;;;;;;123.63;112.03;;;8.70;58.00;;;;;;5019261;28;20060;-77
2022/03/13 07:39:54;;;;;;;126.10;114.07;;;8.70;58.10;;;;;;5000926;28;20049;-77
2022/03/13 07:42:21;;;;;;;140.80;112.50;;;8.70;58.00;;;;;;5030965;28;20046;-77
2022/03/13 07:44:48;;;;;;;122.60;110.50;;;8.70;58.00;;;;;;5033056;28;20133;-77
2022/03/13 07:47:16;;;;;;;123.15;111.43;;;8.70;57.90;;;;;;5017661;28;20056;-78
2022/03/13 07:49:44;;;;;;;123.47;111.60;;;8.70;58.00;;;;;;5001960;28;20125;-76
2022/03/13 07:52:12;;;;;;;120.97;109.20;;;8.80;57.70;;;;;;5048019;28;20057;-76
2022/03/13 07:54:39;;;;;;;124.38;112.55;;;8.80;57.90;;;;;;4983822;28;20072;-77
2022/03/13 07:57:06;;;;;;;124.90;112.95;;;8.80;57.50;;;;;;5018577;28;20069;-77
2022/03/13 07:59:33;;;;;;;121.82;109.97;;;8.80;57.00;;;;;;5018719;28;20046;-77
2022/03/13 08:02:01;;;;;;;120.53;108.72;;;8.80;56.70;;;;;;5018346;28;20054;-77
2022/03/13 08:04:28;;;;;;;120.75;109.13;;;8.80;57.00;;;;;;5018762;28;20054;-77
2022/03/13 08:06:57;;;;;;;123.70;111.60;;;8.80;56.80;;;;;;5047491;28;20056;-77
2022/03/13 08:09:24;;;;;;;121.75;110.10;;;8.80;57.50;;;;;;5018302;28;20107;-78
2022/03/13 08:11:53;;;;;;;122.07;110.05;;;8.90;57.40;;;;;;5018072;28;20839;-78
2022/03/13 08:14:20;;;;;;;123.53;111.45;;;8.90;57.40;;;;;;5017954;28;20050;-78
2022/03/13 08:16:47;;;;;;;120.70;109.10;;;9.00;57.00;;;;;;5018451;28;20862;-78
2022/03/13 08:19:14;;;;;;;123.47;111.68;;;9.00;56.90;;;;;;5018148;28;20128;-77
2022/03/13 08:21:41;;;;;;;122.70;110.65;;;9.10;56.80;;;;;;5018216;28;20058;-77
2022/03/13 08:24:10;;;;;;;121.78;109.97;;;9.10;57.20;;;;;;5018335;28;20504;-77
2022/03/13 08:26:39;;;;;;;121.57;109.68;;;9.10;57.20;;;;;;5017771;28;20595;-77
2022/03/13 08:29:07;;;;;;;122.05;110.35;;;9.20;57.10;;;;;;5017377;28;20043;-78
2022/03/13 08:31:34;;;;;;;122.00;110.35;;;9.30;57.00;;;;;;5017408;28;20056;-78
2022/03/13 08:34:01;;;;;;;123.32;111.32;;;9.30;57.10;;;;;;5001696;28;20054;-77
2022/03/13 08:36:28;;;;;;;124.38;112.50;;;9.40;57.00;;;;;;5017742;28;20092;-77
2022/03/13 08:38:55;;;;;;;121.25;109.50;;;9.40;56.80;;;;;;5017151;28;20052;-77
2022/03/13 08:41:25;;;;;;;122.40;110.80;;;9.50;56.70;;;;;;5016726;28;20554;-78
2022/03/13 08:43:52;;;;;;;121.75;110.10;;;9.50;56.00;;;;;;5001803;28;20992;-78
2022/03/13 08:46:19;;;;;;;121.97;110.35;;;9.60;55.90;;;;;;5017740;28;20056;-77
2022/03/13 08:48:46;;;;;;;122.13;110.10;;;9.60;55.70;;;;;;5035208;28;20766;-77
2022/03/13 08:51:14;;;;;;;122.30;110.50;;;9.60;55.10;;;;;;5017689;28;20507;-77
2022/03/13 08:53:42;;;;;;;121.75;110.05;;;9.70;55.00;;;;;;5043506;28;20050;-78
2022/03/13 08:56:08;;;;;;;121.07;109.57;;;9.70;55.40;;;;;;5036871;28;20058;-76
2022/03/13 08:58:37;;;;;;;122.00;110.45;;;9.80;55.70;;;;;;5021441;28;20101;-75
2022/03/13 09:04:20;;;;;;;120.85;109.35;;;9.90;55.20;;;;;;4996046;28;20136;-76
2022/03/13 09:06:49;;;;;;;122.03;110.53;;;10.00;54.40;;;;;;5043712;28;20056;-77
2022/03/13 09:09:20;;;;;;;120.93;109.30;;;10.00;53.70;;;;;;5048993;28;20057;-79
2022/03/13 09:11:48;;;;;;;123.88;110.38;;;10.10;53.70;;;;;;5030136;28;20890;-76
2022/03/13 09:14:17;;;;;;;121.53;109.78;;;10.10;53.70;;;;;;5018000;28;20054;-78
2022/03/13 09:16:45;;;;;;;121.78;110.35;;;10.20;53.70;;;;;;5030798;28;20058;-78
2022/03/13 09:19:13;;;;;;;122.32;110.78;;;10.20;53.90;;;;;;5028211;28;20061;-76
2022/03/13 09:21:41;;;;;;;134.77;111.18;;;10.30;53.30;;;;;;5033460;28;20056;-78
2022/03/13 09:24:09;;;;;;;121.18;109.68;;;10.30;52.90;;;;;;5028325;28;20080;-77
2022/03/13 09:26:39;;;;;;;121.22;109.75;;;10.40;53.00;;;;;;5023233;28;20088;-78
2022/03/13 09:29:07;;;;;;;121.95;110.35;;;10.50;52.90;;;;;;5035058;28;20042;-79
2022/03/13 09:31:36;;;;;;;120.75;109.20;;;10.50;53.00;;;;;;5049576;28;20057;-79
2022/03/13 09:34:03;;;;;;;121.82;110.25;;;10.60;52.90;;;;;;5008214;28;20133;-77
2022/03/13 09:36:36;;;;;;;122.85;111.13;;;10.60;53.00;;;;;;5035154;28;20089;-76
2022/03/13 09:39:04;;;;;;;120.22;108.85;;;10.70;53.00;;;;;;5000265;28;20535;-76
2022/03/13 09:41:32;;;;;;;120.78;109.47;;;10.80;53.10;;;;;;5000444;28;20054;-75
2022/03/13 09:43:59;;;;;;;120.85;109.13;;;10.90;53.30;;;;;;5025279;28;20054;-76
2022/03/13 09:46:26;;;;;;;120.88;109.40;;;10.90;52.80;;;;;;5021106;28;20063;-77
2022/03/13 09:48:59;;;;;;;120.90;109.43;;;11.00;51.50;;;;;;5043182;28;20073;-76
2022/03/13 09:51:26;;;;;;;122.50;110.88;;;11.10;51.60;;;;;;5020636;28;20050;-76
2022/03/13 09:53:54;;;;;;;122.22;110.32;;;11.20;51.80;;;;;;5054670;28;20053;-77
2022/03/13 09:56:21;;;;;;;122.30;110.57;;;11.30;51.90;;;;;;5016856;28;20089;-77
2022/03/13 09:58:48;;;;;;;122.22;110.63;;;11.40;52.40;;;;;;5019646;28;20589;-76
2022/03/13 10:01:15;;;;;;;121.88;110.40;;;11.50;51.40;;;;;;5024407;28;20508;-76
2022/03/13 10:03:42;;;;;;;124.32;112.63;;;11.50;51.80;;;;;;5052558;28;20052;-76
2022/03/13 10:06:11;;;;;;;124.68;112.75;;;11.60;52.00;;;;;;5036915;28;20136;-77
2022/03/13 10:08:44;;;;;;;124.85;113.07;;;11.70;51.80;;;;;;5035954;28;20046;-77
2022/03/13 10:11:11;;;;;;;123.55;111.75;;;11.80;52.00;;;;;;5037894;23;20528;-77
2022/03/13 10:13:40;;;;;;;124.97;113.25;;;11.80;52.20;;;;;;4995526;28;20062;-77
2022/03/13 10:16:08;;;;;;;123.93;112.40;;;11.90;52.40;;;;;;4994531;28;20061;-77
2022/03/13 10:18:36;;;;;;;123.20;111.65;;;12.00;52.50;;;;;;4976714;28;20055;-77
2022/03/13 10:21:12;;;;;;;123.38;111.75;;;12.10;53.00;;;;;;4977632;28;20081;-77
2022/03/13 10:23:40;;;;;;;127.25;115.40;;;12.20;52.50;;;;;;4977052;28;20058;-77
2022/03/13 10:26:07;;;;;;;126.25;114.45;;;12.30;52.40;;;;;;4961024;28;20061;-78
2022/03/13 10:28:36;;;;;;;126.18;114.18;;;12.30;52.20;;;;;;4976809;28;20043;-76
2022/03/13 10:31:11;;;;;;;124.40;112.80;;;12.40;52.20;;;;;;4977312;28;20058;-76
2022/03/13 10:33:54;;;;;;;125.05;113.53;;;12.50;52.40;;;;;;4963747;28;20054;-76
2022/03/13 10:36:31;;;;;;;127.72;115.90;;;12.60;52.20;;;;;;4982830;28;20535;-75
2022/03/13 10:39:00;;;;;;;125.97;114.40;;;12.70;52.00;;;;;;4995135;28;21077;-75
2022/03/13 10:41:44;;;;;;;127.25;115.65;;;12.80;52.10;;;;;;4994020;28;20129;-75
2022/03/13 10:44:18;;;;;;;128.68;115.35;;;12.90;51.40;;;;;;4986596;28;20078;-76
2022/03/13 10:46:47;;;;;;;127.13;115.43;;;13.00;51.70;;;;;;4995131;28;20099;-76
2022/03/13 10:49:16;;;;;;;125.97;114.25;;;13.10;51.00;;;;;;5013381;28;20266;-76
2022/03/13 10:51:48;;;;;;;127.22;115.63;;;13.20;50.70;;;;;;4994891;28;20133;-75
2022/03/13 10:54:30;;;;;;;127.10;115.45;;;13.30;50.60;;;;;;4975593;28;20050;-76
2022/03/13 10:57:08;;;;;;;128.85;117.15;;;13.40;51.00;;;;;;5013006;28;20112;-75
2022/03/13 10:59:35;;;;;;;129.27;117.50;;;13.50;50.40;;;;;;4975447;28;20042;-76
2022/03/13 11:02:13;;;;;;;129.65;117.20;;;13.60;50.50;;;;;;4996321;28;20141;-76
2022/03/13 11:04:50;;;;;;;129.70;117.95;;;13.70;50.60;;;;;;4994499;28;20053;-76
2022/03/13 11:07:20;;;;;;;130.07;118.63;;;13.80;50.70;;;;;;5006586;28;20058;-75
2022/03/13 11:09:47;;;;;;;128.90;117.38;;;13.90;50.70;;;;;;4992781;28;20043;-75
2022/03/13 11:12:17;;;;;;;132.95;119.97;;;14.00;50.70;;;;;;5009553;28;20133;-74
2022/03/13 11:14:46;;;;;;;129.80;118.10;;;14.10;51.10;;;;;;4976033;28;20054;-74
2022/03/13 11:17:15;;;;;;;131.23;119.25;;;14.20;50.70;;;;;;5006408;28;20541;-74
2022/03/13 11:19:42;;;;;;;130.45;118.82;;;14.40;50.50;;;;;;4992218;28;20057;-74
2022/03/13 11:22:09;;;;;;;131.77;120.18;;;14.40;50.90;;;;;;4993974;28;20043;-74
2022/03/13 11:24:40;;;;;;;133.60;121.75;;;14.50;50.40;;;;;;4991242;28;20577;-75
2022/03/13 11:27:08;;;;;;;135.55;122.03;;;14.60;50.00;;;;;;4969396;28;20089;-74
2022/03/13 11:29:43;;;;;;;131.95;120.25;;;14.70;50.20;;;;;;4994191;28;20074;-74
2022/03/13 11:32:29;;;;;;;129.88;118.43;;;14.80;49.70;;;;;;4989639;28;20055;-75
2022/03/13 11:35:31;;;;;;;132.02;120.32;;;14.90;50.40;;;;;;5008591;28;20046;-74
2022/03/13 11:38:23;;;;;;;130.35;118.68;;;15.00;50.20;;;;;;4930706;29;20168;-74
2022/03/13 11:40:51;;;;;;;132.00;120.50;;;15.10;50.70;;;;;;4928245;28;20056;-74
2022/03/13 11:43:20;;;;;;;132.38;120.97;;;15.20;50.00;;;;;;4975520;28;20077;-74
2022/03/13 11:45:52;;;;;;;132.63;120.95;;;15.20;50.00;;;;;;5014317;28;20042;-75
2022/03/13 11:48:41;;;;;;;134.65;123.18;;;15.40;50.10;;;;;;5011526;28;20066;-75
2022/03/13 11:51:10;;;;;;;154.02;123.63;;;15.50;50.00;;;;;;4989440;28;20058;-75
2022/03/13 11:53:48;;;;;;;132.10;120.53;;;15.60;49.40;;;;;;4987790;28;20082;-74
2022/03/13 11:56:28;;;;;;;134.57;123.03;;;15.70;49.30;;;;;;4975386;28;20050;-74
2022/03/13 11:59:00;;;;;;;132.93;121.40;;;15.70;49.00;;;;;;4988268;28;20043;-74
2022/03/13 12:01:35;;;;;;;133.70;122.15;;;15.80;49.00;;;;;;5001820;28;20055;-75
2022/03/13 12:04:35;;;;;;;134.82;123.28;;;15.90;49.80;;;;;;4986537;28;20109;-74
2022/03/13 12:07:06;;;;;;;134.60;123.15;;;16.00;49.30;;;;;;4939884;28;20060;-74
2022/03/13 12:09:44;;;;;;;132.93;121.47;;;16.10;48.40;;;;;;4970185;28;20097;-74
2022/03/13 12:12:14;;;;;;;133.02;121.93;;;16.20;48.10;;;;;;5000454;28;20096;-75
2022/03/13 12:14:56;;;;;;;131.82;118.95;;;16.30;47.50;;;;;;5010524;28;20054;-75
2022/03/13 12:17:26;;;;;;;132.57;121.07;;;16.30;47.10;;;;;;5007514;28;20058;-74
2022/03/13 12:19:54;;;;;;;134.10;122.22;;;16.40;47.80;;;;;;5010042;28;20062;-75
2022/03/13 12:22:22;;;;;;;136.18;124.55;;;16.50;47.90;;;;;;4993758;28;20527;-74
2022/03/13 12:24:51;;;;;;;134.85;123.55;;;16.60;48.00;;;;;;4990284;28;20054;-76
2022/03/13 12:27:19;;;;;;;135.80;124.28;;;16.60;47.90;;;;;;4997432;28;20819;-75
2022/03/13 12:29:55;;;;;;;135.13;123.82;;;16.70;48.00;;;;;;4997373;28;20477;-75
2022/03/13 12:32:31;;;;;;;;;;;16.80;47.20;;;;;;5002426;28;20047;-78